首页
METAR-TAF:

METAR-TAF

机场 :

Bisbee Douglas International Airport

道格拉斯 / 比斯比, 亞利桑那州, 美国

纬度: 31-28-09N, 经度: 109-36-13W, 海拔: 1266米

当前天气观测

该预报发布于1小时和2分钟前的00:56 UTC
风速10节,风向
温度 20°C
湿度 17%
气压 1017 hPa
能見度: 16.1公里
天空无云

METAR: KDUG 070056Z AUTO 19010KT 10SM CLR 20/M06 A3002 RMK AO2 SLP126 T02001061

时间: 18:58 (01:58 UTC)

预报

该预报发布于2小时和38分钟前的23:20 UTC
预报有效从07日的 00点(UTC)到 07日的 24点(UTC)
风速17节,风向西南,有时为27节阵风
能見度: 10公里
散云层高于12000英尺
多云层高于25000英尺
从 07日的 0200点(UTC)
风速10节,风向南转西南,有时为17节阵风
能見度: 10公里
散云层高于12000英尺
多云层高于25000英尺
从 07日的 0400点(UTC)
风速7节,风向南转西南
能見度: 10公里
散云层高于8000英尺
从 07日的 1900点(UTC)
风速10节,风向,有时为17节阵风
能見度: 10公里
散云层高于8000英尺

TAF: KDUG 062320Z 0700/0724 22017G27KT P6SM SCT120 BKN250 FM070200 21010G17KT P6SM SCT120 BKN250 FM070400 21007KT P6SM SCT080 FM071900 19010G17KT P6SM SCT080

超过4000个机场的气象观测和天气预报(METAR&TAF报告)。

可查询的气象台以黄色和红色小点在地图上表示。

将鼠标移到小点上方,可查看气象台名称。

然后点击查看天气观测和预报。

如需切换地图:点击带黑十字的绿色按钮放大地图;点击带横线的绿色按钮缩小地图;或者点击绿色箭头查看邻近地区的地图。


METAR-TAF: